sensor_id;sensor_type;location;lat;lon;timestamp;P1;durP1;ratioP1;P2;durP2;ratioP2
5349;SDS011;2697;42.144;24.794;2023-11-25T00:01:40;93.07;;;37.03;;
5349;SDS011;2697;42.144;24.794;2023-11-25T00:04:05;84.40;;;34.40;;
5349;SDS011;2697;42.144;24.794;2023-11-25T00:06:31;85.70;;;36.23;;
5349;SDS011;2697;42.144;24.794;2023-11-25T00:08:57;89.93;;;37.60;;
5349;SDS011;2697;42.144;24.794;2023-11-25T00:11:22;95.57;;;36.37;;
5349;SDS011;2697;42.144;24.794;2023-11-25T00:13:48;82.97;;;36.10;;
5349;SDS011;2697;42.144;24.794;2023-11-25T00:16:13;80.47;;;34.00;;
5349;SDS011;2697;42.144;24.794;2023-11-25T00:18:38;94.67;;;38.20;;
5349;SDS011;2697;42.144;24.794;2023-11-25T00:21:04;96.03;;;35.70;;
5349;SDS011;2697;42.144;24.794;2023-11-25T00:23:29;79.93;;;36.23;;
5349;SDS011;2697;42.144;24.794;2023-11-25T00:25:54;91.37;;;37.60;;
5349;SDS011;2697;42.144;24.794;2023-11-25T00:28:20;80.67;;;35.23;;
5349;SDS011;2697;42.144;24.794;2023-11-25T00:30:45;86.23;;;36.27;;
5349;SDS011;2697;42.144;24.794;2023-11-25T00:33:12;83.17;;;35.40;;
5349;SDS011;2697;42.144;24.794;2023-11-25T00:35:39;94.80;;;34.37;;
5349;SDS011;2697;42.144;24.794;2023-11-25T00:38:05;84.63;;;34.60;;
5349;SDS011;2697;42.144;24.794;2023-11-25T00:40:33;92.40;;;36.90;;
5349;SDS011;2697;42.144;24.794;2023-11-25T00:42:59;97.57;;;36.67;;
5349;SDS011;2697;42.144;24.794;2023-11-25T00:45:24;89.90;;;34.50;;
5349;SDS011;2697;42.144;24.794;2023-11-25T00:47:51;93.53;;;37.33;;
5349;SDS011;2697;42.144;24.794;2023-11-25T00:50:17;95.10;;;36.87;;
5349;SDS011;2697;42.144;24.794;2023-11-25T00:52:44;92.40;;;36.27;;
5349;SDS011;2697;42.144;24.794;2023-11-25T00:55:10;85.60;;;36.37;;
5349;SDS011;2697;42.144;24.794;2023-11-25T00:57:36;106.40;;;42.10;;
5349;SDS011;2697;42.144;24.794;2023-11-25T01:00:01;93.03;;;37.30;;
5349;SDS011;2697;42.144;24.794;2023-11-25T01:02:29;96.50;;;38.83;;
5349;SDS011;2697;42.144;24.794;2023-11-25T01:04:55;90.50;;;39.00;;
5349;SDS011;2697;42.144;24.794;2023-11-25T01:07:21;90.10;;;35.50;;
5349;SDS011;2697;42.144;24.794;2023-11-25T01:09:46;85.13;;;34.77;;
5349;SDS011;2697;42.144;24.794;2023-11-25T01:12:11;91.13;;;35.50;;
5349;SDS011;2697;42.144;24.794;2023-11-25T01:14:37;105.40;;;37.23;;
5349;SDS011;2697;42.144;24.794;2023-11-25T01:17:02;98.93;;;38.33;;
5349;SDS011;2697;42.144;24.794;2023-11-25T01:19:28;90.27;;;38.50;;
5349;SDS011;2697;42.144;24.794;2023-11-25T01:21:53;104.70;;;38.63;;
5349;SDS011;2697;42.144;24.794;2023-11-25T01:24:19;100.90;;;38.50;;
5349;SDS011;2697;42.144;24.794;2023-11-25T01:26:44;96.60;;;37.57;;
5349;SDS011;2697;42.144;24.794;2023-11-25T01:29:10;92.97;;;34.17;;
5349;SDS011;2697;42.144;24.794;2023-11-25T01:31:35;95.50;;;36.47;;
5349;SDS011;2697;42.144;24.794;2023-11-25T01:34:00;112.50;;;40.07;;
5349;SDS011;2697;42.144;24.794;2023-11-25T01:36:26;97.40;;;36.00;;
5349;SDS011;2697;42.144;24.794;2023-11-25T01:38:52;109.30;;;38.70;;
5349;SDS011;2697;42.144;24.794;2023-11-25T01:41:19;107.27;;;37.90;;
5349;SDS011;2697;42.144;24.794;2023-11-25T01:43:44;91.50;;;36.57;;
5349;SDS011;2697;42.144;24.794;2023-11-25T01:46:10;103.83;;;40.07;;
5349;SDS011;2697;42.144;24.794;2023-11-25T01:48:37;101.17;;;36.50;;
5349;SDS011;2697;42.144;24.794;2023-11-25T01:51:03;104.10;;;36.70;;
5349;SDS011;2697;42.144;24.794;2023-11-25T01:53:31;94.83;;;34.60;;
5349;SDS011;2697;42.144;24.794;2023-11-25T01:55:58;100.63;;;37.10;;
5349;SDS011;2697;42.144;24.794;2023-11-25T01:58:25;105.03;;;37.80;;
5349;SDS011;2697;42.144;24.794;2023-11-25T02:00:53;94.60;;;33.47;;
5349;SDS011;2697;42.144;24.794;2023-11-25T02:03:19;95.13;;;38.80;;
5349;SDS011;2697;42.144;24.794;2023-11-25T02:05:45;101.50;;;32.87;;
5349;SDS011;2697;42.144;24.794;2023-11-25T02:08:11;99.40;;;36.50;;
5349;SDS011;2697;42.144;24.794;2023-11-25T02:10:37;99.53;;;37.43;;
5349;SDS011;2697;42.144;24.794;2023-11-25T02:13:04;92.67;;;37.30;;
5349;SDS011;2697;42.144;24.794;2023-11-25T02:15:36;104.07;;;36.60;;
5349;SDS011;2697;42.144;24.794;2023-11-25T02:18:03;108.30;;;38.30;;
5349;SDS011;2697;42.144;24.794;2023-11-25T02:20:29;103.03;;;37.47;;
5349;SDS011;2697;42.144;24.794;2023-11-25T02:23:03;92.73;;;37.07;;
5349;SDS011;2697;42.144;24.794;2023-11-25T02:25:30;84.33;;;35.60;;
5349;SDS011;2697;42.144;24.794;2023-11-25T02:27:55;89.60;;;36.43;;
5349;SDS011;2697;42.144;24.794;2023-11-25T02:30:21;102.03;;;39.73;;
5349;SDS011;2697;42.144;24.794;2023-11-25T02:32:49;90.97;;;35.20;;
5349;SDS011;2697;42.144;24.794;2023-11-25T02:35:15;97.60;;;36.67;;
5349;SDS011;2697;42.144;24.794;2023-11-25T02:37:44;93.50;;;37.70;;
5349;SDS011;2697;42.144;24.794;2023-11-25T02:40:10;106.93;;;37.53;;
5349;SDS011;2697;42.144;24.794;2023-11-25T02:42:42;103.03;;;37.53;;
5349;SDS011;2697;42.144;24.794;2023-11-25T02:45:12;108.00;;;38.93;;
5349;SDS011;2697;42.144;24.794;2023-11-25T02:47:39;103.27;;;36.80;;
5349;SDS011;2697;42.144;24.794;2023-11-25T02:50:04;104.57;;;40.30;;
5349;SDS011;2697;42.144;24.794;2023-11-25T02:52:32;247.20;;;48.70;;
5349;SDS011;2697;42.144;24.794;2023-11-25T02:54:58;117.30;;;37.97;;
5349;SDS011;2697;42.144;24.794;2023-11-25T02:57:24;356.53;;;49.00;;
5349;SDS011;2697;42.144;24.794;2023-11-25T02:59:49;252.57;;;45.67;;
5349;SDS011;2697;42.144;24.794;2023-11-25T03:02:15;97.37;;;39.13;;
5349;SDS011;2697;42.144;24.794;2023-11-25T03:04:41;108.97;;;39.83;;
5349;SDS011;2697;42.144;24.794;2023-11-25T03:07:10;111.90;;;39.40;;
5349;SDS011;2697;42.144;24.794;2023-11-25T03:09:38;96.47;;;36.50;;
5349;SDS011;2697;42.144;24.794;2023-11-25T03:12:04;88.87;;;37.67;;
5349;SDS011;2697;42.144;24.794;2023-11-25T03:14:30;102.27;;;36.97;;
5349;SDS011;2697;42.144;24.794;2023-11-25T03:16:56;106.23;;;38.30;;
5349;SDS011;2697;42.144;24.794;2023-11-25T03:19:22;107.57;;;38.47;;
5349;SDS011;2697;42.144;24.794;2023-11-25T03:21:48;118.23;;;37.13;;
5349;SDS011;2697;42.144;24.794;2023-11-25T03:24:16;104.57;;;36.23;;
5349;SDS011;2697;42.144;24.794;2023-11-25T03:26:42;80.10;;;33.97;;
5349;SDS011;2697;42.144;24.794;2023-11-25T03:29:09;114.63;;;38.57;;
5349;SDS011;2697;42.144;24.794;2023-11-25T03:31:40;94.97;;;38.27;;
5349;SDS011;2697;42.144;24.794;2023-11-25T03:34:07;94.87;;;35.90;;
5349;SDS011;2697;42.144;24.794;2023-11-25T03:36:32;98.60;;;36.30;;
5349;SDS011;2697;42.144;24.794;2023-11-25T03:38:58;95.93;;;35.80;;
5349;SDS011;2697;42.144;24.794;2023-11-25T03:41:23;87.37;;;34.27;;
5349;SDS011;2697;42.144;24.794;2023-11-25T03:43:48;90.97;;;37.23;;
5349;SDS011;2697;42.144;24.794;2023-11-25T03:46:14;105.90;;;40.03;;
5349;SDS011;2697;42.144;24.794;2023-11-25T03:48:39;106.53;;;37.33;;
5349;SDS011;2697;42.144;24.794;2023-11-25T03:51:05;105.43;;;37.90;;
5349;SDS011;2697;42.144;24.794;2023-11-25T03:53:31;105.37;;;38.73;;
5349;SDS011;2697;42.144;24.794;2023-11-25T03:55:57;113.27;;;37.47;;
5349;SDS011;2697;42.144;24.794;2023-11-25T03:58:25;111.60;;;35.80;;
5349;SDS011;2697;42.144;24.794;2023-11-25T04:00:50;94.10;;;34.13;;
5349;SDS011;2697;42.144;24.794;2023-11-25T04:03:16;103.80;;;35.20;;
5349;SDS011;2697;42.144;24.794;2023-11-25T04:05:42;96.83;;;36.60;;
5349;SDS011;2697;42.144;24.794;2023-11-25T04:08:07;108.23;;;38.63;;
5349;SDS011;2697;42.144;24.794;2023-11-25T04:10:33;105.57;;;37.03;;
5349;SDS011;2697;42.144;24.794;2023-11-25T04:12:58;101.57;;;35.63;;
5349;SDS011;2697;42.144;24.794;2023-11-25T04:15:24;120.43;;;42.63;;
5349;SDS011;2697;42.144;24.794;2023-11-25T04:17:49;114.23;;;35.80;;
5349;SDS011;2697;42.144;24.794;2023-11-25T04:20:15;109.03;;;38.20;;
5349;SDS011;2697;42.144;24.794;2023-11-25T04:22:53;109.33;;;37.13;;
5349;SDS011;2697;42.144;24.794;2023-11-25T04:25:19;107.03;;;36.13;;
5349;SDS011;2697;42.144;24.794;2023-11-25T04:27:46;110.10;;;36.83;;
5349;SDS011;2697;42.144;24.794;2023-11-25T04:30:13;95.10;;;36.60;;
5349;SDS011;2697;42.144;24.794;2023-11-25T04:32:40;105.17;;;38.57;;
5349;SDS011;2697;42.144;24.794;2023-11-25T04:35:07;118.93;;;39.40;;
5349;SDS011;2697;42.144;24.794;2023-11-25T04:37:34;104.57;;;38.30;;
5349;SDS011;2697;42.144;24.794;2023-11-25T04:40:02;114.63;;;39.90;;
5349;SDS011;2697;42.144;24.794;2023-11-25T04:42:30;126.03;;;44.50;;
5349;SDS011;2697;42.144;24.794;2023-11-25T04:44:56;139.00;;;46.20;;
5349;SDS011;2697;42.144;24.794;2023-11-25T04:47:21;149.30;;;51.37;;
5349;SDS011;2697;42.144;24.794;2023-11-25T04:49:47;155.43;;;48.97;;
5349;SDS011;2697;42.144;24.794;2023-11-25T04:52:12;164.33;;;53.60;;
5349;SDS011;2697;42.144;24.794;2023-11-25T04:54:38;118.30;;;40.03;;
5349;SDS011;2697;42.144;24.794;2023-11-25T04:57:04;130.07;;;41.90;;
5349;SDS011;2697;42.144;24.794;2023-11-25T04:59:31;134.73;;;45.80;;
5349;SDS011;2697;42.144;24.794;2023-11-25T05:01:56;122.23;;;41.37;;
5349;SDS011;2697;42.144;24.794;2023-11-25T05:04:22;108.30;;;39.50;;
5349;SDS011;2697;42.144;24.794;2023-11-25T05:06:47;117.97;;;42.80;;
5349;SDS011;2697;42.144;24.794;2023-11-25T05:09:13;110.70;;;36.57;;
5349;SDS011;2697;42.144;24.794;2023-11-25T05:11:47;126.10;;;41.70;;
5349;SDS011;2697;42.144;24.794;2023-11-25T05:14:13;133.73;;;40.57;;
5349;SDS011;2697;42.144;24.794;2023-11-25T05:16:39;130.33;;;39.37;;
5349;SDS011;2697;42.144;24.794;2023-11-25T05:19:04;123.33;;;37.57;;
5349;SDS011;2697;42.144;24.794;2023-11-25T05:21:29;115.33;;;37.87;;
5349;SDS011;2697;42.144;24.794;2023-11-25T05:23:55;114.60;;;38.20;;
5349;SDS011;2697;42.144;24.794;2023-11-25T05:26:21;114.37;;;37.40;;
5349;SDS011;2697;42.144;24.794;2023-11-25T05:28:48;143.20;;;39.53;;
5349;SDS011;2697;42.144;24.794;2023-11-25T05:31:14;103.80;;;39.27;;
5349;SDS011;2697;42.144;24.794;2023-11-25T05:33:39;124.40;;;37.30;;
5349;SDS011;2697;42.144;24.794;2023-11-25T05:36:04;106.77;;;37.47;;
5349;SDS011;2697;42.144;24.794;2023-11-25T05:38:30;94.80;;;34.63;;
5349;SDS011;2697;42.144;24.794;2023-11-25T05:40:55;105.37;;;38.33;;
5349;SDS011;2697;42.144;24.794;2023-11-25T05:43:22;113.53;;;40.57;;
5349;SDS011;2697;42.144;24.794;2023-11-25T05:45:50;110.60;;;37.77;;
5349;SDS011;2697;42.144;24.794;2023-11-25T05:48:15;109.10;;;40.43;;
5349;SDS011;2697;42.144;24.794;2023-11-25T05:50:42;129.33;;;41.10;;
5349;SDS011;2697;42.144;24.794;2023-11-25T05:53:07;123.03;;;41.70;;
5349;SDS011;2697;42.144;24.794;2023-11-25T05:55:33;107.03;;;39.07;;
5349;SDS011;2697;42.144;24.794;2023-11-25T05:57:58;102.30;;;40.53;;
5349;SDS011;2697;42.144;24.794;2023-11-25T06:00:24;115.73;;;39.73;;
5349;SDS011;2697;42.144;24.794;2023-11-25T06:02:50;99.97;;;36.30;;
5349;SDS011;2697;42.144;24.794;2023-11-25T06:05:17;117.60;;;38.07;;
5349;SDS011;2697;42.144;24.794;2023-11-25T06:07:43;127.20;;;39.67;;
5349;SDS011;2697;42.144;24.794;2023-11-25T06:10:08;102.57;;;38.50;;
5349;SDS011;2697;42.144;24.794;2023-11-25T06:12:35;106.37;;;38.13;;
5349;SDS011;2697;42.144;24.794;2023-11-25T06:15:00;105.27;;;38.30;;
5349;SDS011;2697;42.144;24.794;2023-11-25T06:17:26;98.73;;;36.30;;
5349;SDS011;2697;42.144;24.794;2023-11-25T06:19:53;101.83;;;34.93;;
5349;SDS011;2697;42.144;24.794;2023-11-25T06:22:19;92.90;;;35.77;;
5349;SDS011;2697;42.144;24.794;2023-11-25T06:24:45;111.13;;;36.40;;
5349;SDS011;2697;42.144;24.794;2023-11-25T06:27:11;110.10;;;35.33;;
5349;SDS011;2697;42.144;24.794;2023-11-25T06:29:36;118.70;;;37.43;;
5349;SDS011;2697;42.144;24.794;2023-11-25T06:32:04;110.87;;;37.50;;
5349;SDS011;2697;42.144;24.794;2023-11-25T06:34:30;90.70;;;33.83;;
5349;SDS011;2697;42.144;24.794;2023-11-25T06:36:56;91.07;;;32.40;;
5349;SDS011;2697;42.144;24.794;2023-11-25T06:39:21;109.40;;;37.00;;
5349;SDS011;2697;42.144;24.794;2023-11-25T06:41:48;120.53;;;40.27;;
5349;SDS011;2697;42.144;24.794;2023-11-25T06:44:17;111.67;;;37.53;;
5349;SDS011;2697;42.144;24.794;2023-11-25T06:46:43;107.33;;;35.80;;
5349;SDS011;2697;42.144;24.794;2023-11-25T06:49:09;115.27;;;35.03;;
5349;SDS011;2697;42.144;24.794;2023-11-25T06:51:37;109.83;;;34.20;;
5349;SDS011;2697;42.144;24.794;2023-11-25T06:54:03;109.27;;;36.10;;
5349;SDS011;2697;42.144;24.794;2023-11-25T06:56:28;109.33;;;37.10;;
5349;SDS011;2697;42.144;24.794;2023-11-25T06:58:55;100.77;;;34.67;;
5349;SDS011;2697;42.144;24.794;2023-11-25T07:01:20;115.97;;;35.33;;
5349;SDS011;2697;42.144;24.794;2023-11-25T07:03:47;118.23;;;36.17;;
5349;SDS011;2697;42.144;24.794;2023-11-25T07:06:14;129.03;;;37.80;;
5349;SDS011;2697;42.144;24.794;2023-11-25T07:08:43;129.57;;;38.30;;
5349;SDS011;2697;42.144;24.794;2023-11-25T07:11:11;124.70;;;38.87;;
5349;SDS011;2697;42.144;24.794;2023-11-25T07:13:38;133.87;;;39.07;;
5349;SDS011;2697;42.144;24.794;2023-11-25T07:16:05;121.87;;;37.60;;
5349;SDS011;2697;42.144;24.794;2023-11-25T07:18:34;120.93;;;34.90;;
5349;SDS011;2697;42.144;24.794;2023-11-25T07:21:00;137.13;;;40.70;;
5349;SDS011;2697;42.144;24.794;2023-11-25T07:23:26;144.73;;;40.73;;
5349;SDS011;2697;42.144;24.794;2023-11-25T07:25:52;152.90;;;41.37;;
5349;SDS011;2697;42.144;24.794;2023-11-25T07:28:20;129.03;;;38.90;;
5349;SDS011;2697;42.144;24.794;2023-11-25T07:30:47;134.40;;;38.30;;
5349;SDS011;2697;42.144;24.794;2023-11-25T07:33:12;112.70;;;36.47;;
5349;SDS011;2697;42.144;24.794;2023-11-25T07:35:38;127.80;;;38.87;;
5349;SDS011;2697;42.144;24.794;2023-11-25T07:38:04;117.00;;;37.23;;
5349;SDS011;2697;42.144;24.794;2023-11-25T07:40:30;125.47;;;38.80;;
5349;SDS011;2697;42.144;24.794;2023-11-25T07:42:55;126.37;;;37.07;;
5349;SDS011;2697;42.144;24.794;2023-11-25T07:45:21;118.40;;;36.20;;
5349;SDS011;2697;42.144;24.794;2023-11-25T07:47:46;125.70;;;34.53;;
5349;SDS011;2697;42.144;24.794;2023-11-25T07:50:12;117.17;;;35.87;;
5349;SDS011;2697;42.144;24.794;2023-11-25T07:52:38;101.10;;;35.50;;
5349;SDS011;2697;42.144;24.794;2023-11-25T07:55:04;100.53;;;31.83;;
5349;SDS011;2697;42.144;24.794;2023-11-25T07:57:33;111.90;;;35.97;;
5349;SDS011;2697;42.144;24.794;2023-11-25T07:59:58;106.50;;;32.30;;
5349;SDS011;2697;42.144;24.794;2023-11-25T08:02:23;97.80;;;33.20;;
5349;SDS011;2697;42.144;24.794;2023-11-25T08:04:50;75.70;;;29.77;;
5349;SDS011;2697;42.144;24.794;2023-11-25T08:07:15;95.70;;;33.63;;
5349;SDS011;2697;42.144;24.794;2023-11-25T08:09:41;73.20;;;29.60;;
5349;SDS011;2697;42.144;24.794;2023-11-25T08:12:07;71.27;;;26.97;;
5349;SDS011;2697;42.144;24.794;2023-11-25T08:14:33;72.13;;;25.40;;
5349;SDS011;2697;42.144;24.794;2023-11-25T08:16:59;67.73;;;25.67;;
5349;SDS011;2697;42.144;24.794;2023-11-25T08:19:24;68.43;;;27.43;;
5349;SDS011;2697;42.144;24.794;2023-11-25T08:21:50;68.40;;;27.10;;
5349;SDS011;2697;42.144;24.794;2023-11-25T08:24:17;65.87;;;23.67;;
5349;SDS011;2697;42.144;24.794;2023-11-25T08:26:43;63.33;;;24.40;;
5349;SDS011;2697;42.144;24.794;2023-11-25T08:29:09;64.93;;;26.20;;
5349;SDS011;2697;42.144;24.794;2023-11-25T08:31:36;62.53;;;23.10;;
5349;SDS011;2697;42.144;24.794;2023-11-25T08:34:02;54.70;;;22.00;;
5349;SDS011;2697;42.144;24.794;2023-11-25T08:36:34;51.17;;;22.03;;
5349;SDS011;2697;42.144;24.794;2023-11-25T08:39:10;49.03;;;22.07;;
5349;SDS011;2697;42.144;24.794;2023-11-25T08:41:38;50.40;;;20.47;;
5349;SDS011;2697;42.144;24.794;2023-11-25T08:44:08;41.67;;;17.40;;
5349;SDS011;2697;42.144;24.794;2023-11-25T08:46:38;43.30;;;16.73;;
5349;SDS011;2697;42.144;24.794;2023-11-25T08:49:08;33.47;;;14.00;;
5349;SDS011;2697;42.144;24.794;2023-11-25T08:51:40;33.13;;;15.20;;
5349;SDS011;2697;42.144;24.794;2023-11-25T08:54:11;29.37;;;13.40;;
5349;SDS011;2697;42.144;24.794;2023-11-25T08:56:39;29.50;;;13.33;;
5349;SDS011;2697;42.144;24.794;2023-11-25T08:59:05;11.60;;;5.80;;
5349;SDS011;2697;42.144;24.794;2023-11-25T09:01:39;8.87;;;5.50;;
5349;SDS011;2697;42.144;24.794;2023-11-25T09:04:07;4.80;;;2.50;;
5349;SDS011;2697;42.144;24.794;2023-11-25T09:06:32;2.90;;;1.77;;
5349;SDS011;2697;42.144;24.794;2023-11-25T09:09:00;0.93;;;0.93;;
5349;SDS011;2697;42.144;24.794;2023-11-25T09:11:26;2.93;;;1.20;;
5349;SDS011;2697;42.144;24.794;2023-11-25T09:13:52;1.43;;;1.10;;
5349;SDS011;2697;42.144;24.794;2023-11-25T09:16:17;2.00;;;1.40;;
5349;SDS011;2697;42.144;24.794;2023-11-25T09:18:43;1.30;;;1.20;;
5349;SDS011;2697;42.144;24.794;2023-11-25T09:21:08;2.27;;;1.30;;
5349;SDS011;2697;42.144;24.794;2023-11-25T09:23:35;6.93;;;1.70;;
5349;SDS011;2697;42.144;24.794;2023-11-25T09:26:01;6.73;;;1.23;;
5349;SDS011;2697;42.144;24.794;2023-11-25T09:28:26;1.60;;;1.30;;
5349;SDS011;2697;42.144;24.794;2023-11-25T09:30:52;3.40;;;2.03;;
5349;SDS011;2697;42.144;24.794;2023-11-25T09:33:17;1.83;;;1.43;;
5349;SDS011;2697;42.144;24.794;2023-11-25T09:35:43;7.53;;;1.67;;
5349;SDS011;2697;42.144;24.794;2023-11-25T09:38:08;1.63;;;1.07;;
5349;SDS011;2697;42.144;24.794;2023-11-25T09:40:33;3.13;;;1.10;;
5349;SDS011;2697;42.144;24.794;2023-11-25T09:42:59;2.43;;;1.77;;
5349;SDS011;2697;42.144;24.794;2023-11-25T09:45:25;1.03;;;1.00;;
5349;SDS011;2697;42.144;24.794;2023-11-25T09:47:54;1.83;;;1.33;;
5349;SDS011;2697;42.144;24.794;2023-11-25T09:50:20;2.10;;;1.17;;
5349;SDS011;2697;42.144;24.794;2023-11-25T09:52:53;1.53;;;1.00;;
5349;SDS011;2697;42.144;24.794;2023-11-25T09:55:20;3.33;;;1.13;;
5349;SDS011;2697;42.144;24.794;2023-11-25T09:57:53;4.77;;;1.10;;
5349;SDS011;2697;42.144;24.794;2023-11-25T10:00:24;4.13;;;0.90;;
5349;SDS011;2697;42.144;24.794;2023-11-25T10:02:51;3.90;;;1.63;;
5349;SDS011;2697;42.144;24.794;2023-11-25T10:05:20;3.27;;;0.93;;
5349;SDS011;2697;42.144;24.794;2023-11-25T10:07:47;1.33;;;1.20;;
5349;SDS011;2697;42.144;24.794;2023-11-25T10:10:12;9.70;;;1.23;;
5349;SDS011;2697;42.144;24.794;2023-11-25T10:12:48;1.90;;;1.70;;
5349;SDS011;2697;42.144;24.794;2023-11-25T10:15:14;0.90;;;0.90;;
5349;SDS011;2697;42.144;24.794;2023-11-25T10:17:40;1.13;;;0.97;;
5349;SDS011;2697;42.144;24.794;2023-11-25T10:20:09;1.93;;;1.40;;
5349;SDS011;2697;42.144;24.794;2023-11-25T10:22:54;0.90;;;0.90;;
5349;SDS011;2697;42.144;24.794;2023-11-25T10:25:23;1.87;;;1.03;;
5349;SDS011;2697;42.144;24.794;2023-11-25T10:27:51;3.30;;;1.50;;
5349;SDS011;2697;42.144;24.794;2023-11-25T10:30:18;4.20;;;1.20;;
5349;SDS011;2697;42.144;24.794;2023-11-25T10:32:46;1.73;;;1.63;;
5349;SDS011;2697;42.144;24.794;2023-11-25T10:35:14;2.80;;;1.10;;
5349;SDS011;2697;42.144;24.794;2023-11-25T10:37:39;5.63;;;1.17;;
5349;SDS011;2697;42.144;24.794;2023-11-25T10:40:09;1.43;;;0.90;;
5349;SDS011;2697;42.144;24.794;2023-11-25T10:42:35;1.20;;;1.10;;
5349;SDS011;2697;42.144;24.794;2023-11-25T10:45:05;2.97;;;1.07;;
5349;SDS011;2697;42.144;24.794;2023-11-25T10:47:38;6.00;;;1.27;;
5349;SDS011;2697;42.144;24.794;2023-11-25T10:50:05;4.63;;;1.27;;
5349;SDS011;2697;42.144;24.794;2023-11-25T10:52:32;3.10;;;1.60;;
5349;SDS011;2697;42.144;24.794;2023-11-25T10:55:01;1.30;;;1.20;;
5349;SDS011;2697;42.144;24.794;2023-11-25T10:57:28;1.80;;;1.27;;
5349;SDS011;2697;42.144;24.794;2023-11-25T10:59:56;1.67;;;1.00;;
5349;SDS011;2697;42.144;24.794;2023-11-25T11:02:29;3.97;;;1.30;;
5349;SDS011;2697;42.144;24.794;2023-11-25T11:05:06;1.67;;;1.40;;
5349;SDS011;2697;42.144;24.794;2023-11-25T11:07:37;7.03;;;1.20;;
5349;SDS011;2697;42.144;24.794;2023-11-25T11:10:14;2.10;;;1.50;;
5349;SDS011;2697;42.144;24.794;2023-11-25T11:13:08;7.07;;;1.20;;
5349;SDS011;2697;42.144;24.794;2023-11-25T11:15:34;1.30;;;1.00;;
5349;SDS011;2697;42.144;24.794;2023-11-25T11:18:11;2.50;;;0.90;;
5349;SDS011;2697;42.144;24.794;2023-11-25T11:20:46;2.20;;;1.07;;
5349;SDS011;2697;42.144;24.794;2023-11-25T11:23:15;1.17;;;0.90;;
5349;SDS011;2697;42.144;24.794;2023-11-25T11:26:01;10.60;;;3.40;;
5349;SDS011;2697;42.144;24.794;2023-11-25T11:28:36;0.83;;;0.83;;
5349;SDS011;2697;42.144;24.794;2023-11-25T11:33:58;1.60;;;1.27;;
5349;SDS011;2697;42.144;24.794;2023-11-25T11:36:30;2.70;;;1.40;;
5349;SDS011;2697;42.144;24.794;2023-11-25T11:38:56;0.70;;;0.63;;
5349;SDS011;2697;42.144;24.794;2023-11-25T11:41:23;5.83;;;1.23;;
5349;SDS011;2697;42.144;24.794;2023-11-25T11:44:05;1.17;;;1.07;;
5349;SDS011;2697;42.144;24.794;2023-11-25T11:46:37;7.40;;;1.47;;
5349;SDS011;2697;42.144;24.794;2023-11-25T11:49:06;0.77;;;0.77;;
5349;SDS011;2697;42.144;24.794;2023-11-25T11:51:33;1.00;;;0.90;;
5349;SDS011;2697;42.144;24.794;2023-11-25T11:59:22;2.43;;;1.03;;
5349;SDS011;2697;42.144;24.794;2023-11-25T12:02:40;1.47;;;1.00;;
5349;SDS011;2697;42.144;24.794;2023-11-25T12:05:08;3.50;;;1.40;;
5349;SDS011;2697;42.144;24.794;2023-11-25T12:07:36;1.40;;;1.30;;
5349;SDS011;2697;42.144;24.794;2023-11-25T12:10:03;1.33;;;1.23;;
5349;SDS011;2697;42.144;24.794;2023-11-25T12:12:30;1.40;;;1.30;;
5349;SDS011;2697;42.144;24.794;2023-11-25T12:14:56;1.60;;;1.10;;
5349;SDS011;2697;42.144;24.794;2023-11-25T12:17:21;1.73;;;1.53;;
5349;SDS011;2697;42.144;24.794;2023-11-25T12:19:46;2.67;;;1.80;;
5349;SDS011;2697;42.144;24.794;2023-11-25T12:22:12;1.03;;;0.90;;
5349;SDS011;2697;42.144;24.794;2023-11-25T12:24:42;1.53;;;1.20;;
5349;SDS011;2697;42.144;24.794;2023-11-25T12:27:09;0.90;;;0.90;;
5349;SDS011;2697;42.144;24.794;2023-11-25T12:29:36;2.23;;;1.50;;
5349;SDS011;2697;42.144;24.794;2023-11-25T12:32:01;3.07;;;1.77;;
5349;SDS011;2697;42.144;24.794;2023-11-25T12:34:28;2.17;;;1.07;;
5349;SDS011;2697;42.144;24.794;2023-11-25T12:36:55;1.90;;;1.10;;
5349;SDS011;2697;42.144;24.794;2023-11-25T12:39:21;2.80;;;1.70;;
5349;SDS011;2697;42.144;24.794;2023-11-25T12:41:47;1.43;;;1.20;;
5349;SDS011;2697;42.144;24.794;2023-11-25T12:44:14;1.27;;;1.13;;
5349;SDS011;2697;42.144;24.794;2023-11-25T12:46:41;5.63;;;1.27;;
5349;SDS011;2697;42.144;24.794;2023-11-25T12:49:24;1.20;;;1.07;;
5349;SDS011;2697;42.144;24.794;2023-11-25T12:51:50;2.77;;;1.93;;
5349;SDS011;2697;42.144;24.794;2023-11-25T12:54:16;3.20;;;1.43;;
5349;SDS011;2697;42.144;24.794;2023-11-25T12:56:42;5.40;;;1.77;;
5349;SDS011;2697;42.144;24.794;2023-11-25T12:59:18;2.23;;;1.90;;
5349;SDS011;2697;42.144;24.794;2023-11-25T13:01:48;3.63;;;2.70;;
5349;SDS011;2697;42.144;24.794;2023-11-25T13:04:14;7.20;;;2.53;;
5349;SDS011;2697;42.144;24.794;2023-11-25T13:06:47;1.73;;;1.43;;
5349;SDS011;2697;42.144;24.794;2023-11-25T13:09:14;3.20;;;2.37;;
5349;SDS011;2697;42.144;24.794;2023-11-25T13:11:40;2.53;;;1.80;;
5349;SDS011;2697;42.144;24.794;2023-11-25T13:14:06;2.20;;;2.03;;
5349;SDS011;2697;42.144;24.794;2023-11-25T13:16:32;3.30;;;1.97;;
5349;SDS011;2697;42.144;24.794;2023-11-25T13:18:58;3.50;;;3.00;;
5349;SDS011;2697;42.144;24.794;2023-11-25T13:21:24;3.03;;;1.70;;
5349;SDS011;2697;42.144;24.794;2023-11-25T13:23:49;4.40;;;2.07;;
5349;SDS011;2697;42.144;24.794;2023-11-25T13:26:15;4.63;;;1.87;;
5349;SDS011;2697;42.144;24.794;2023-11-25T13:28:42;3.10;;;2.33;;
5349;SDS011;2697;42.144;24.794;2023-11-25T13:31:08;8.23;;;2.47;;
5349;SDS011;2697;42.144;24.794;2023-11-25T13:33:34;8.93;;;2.90;;
5349;SDS011;2697;42.144;24.794;2023-11-25T13:35:59;8.10;;;2.80;;
5349;SDS011;2697;42.144;24.794;2023-11-25T13:38:25;5.70;;;2.63;;
5349;SDS011;2697;42.144;24.794;2023-11-25T13:40:50;2.20;;;2.00;;
5349;SDS011;2697;42.144;24.794;2023-11-25T13:43:15;4.27;;;3.40;;
5349;SDS011;2697;42.144;24.794;2023-11-25T13:45:42;3.37;;;2.67;;
5349;SDS011;2697;42.144;24.794;2023-11-25T13:48:08;3.67;;;2.50;;
5349;SDS011;2697;42.144;24.794;2023-11-25T13:50:35;4.67;;;3.40;;
5349;SDS011;2697;42.144;24.794;2023-11-25T13:53:01;8.80;;;3.70;;
5349;SDS011;2697;42.144;24.794;2023-11-25T13:55:29;7.90;;;2.83;;
5349;SDS011;2697;42.144;24.794;2023-11-25T13:57:55;3.07;;;1.77;;
5349;SDS011;2697;42.144;24.794;2023-11-25T14:00:21;1.83;;;1.73;;
5349;SDS011;2697;42.144;24.794;2023-11-25T14:02:50;2.90;;;2.20;;
5349;SDS011;2697;42.144;24.794;2023-11-25T14:05:17;6.57;;;3.53;;
5349;SDS011;2697;42.144;24.794;2023-11-25T14:07:43;4.10;;;2.90;;
5349;SDS011;2697;42.144;24.794;2023-11-25T14:10:10;4.20;;;2.60;;
5349;SDS011;2697;42.144;24.794;2023-11-25T14:12:36;4.37;;;3.57;;
5349;SDS011;2697;42.144;24.794;2023-11-25T14:15:03;3.93;;;2.97;;
5349;SDS011;2697;42.144;24.794;2023-11-25T14:17:31;8.10;;;3.87;;
5349;SDS011;2697;42.144;24.794;2023-11-25T14:19:57;4.70;;;3.47;;
5349;SDS011;2697;42.144;24.794;2023-11-25T14:22:23;3.50;;;2.57;;
5349;SDS011;2697;42.144;24.794;2023-11-25T14:24:48;2.60;;;2.40;;
5349;SDS011;2697;42.144;24.794;2023-11-25T14:27:15;5.00;;;2.90;;
5349;SDS011;2697;42.144;24.794;2023-11-25T14:29:40;8.63;;;3.90;;
5349;SDS011;2697;42.144;24.794;2023-11-25T14:32:09;8.50;;;4.10;;
5349;SDS011;2697;42.144;24.794;2023-11-25T14:34:36;12.33;;;4.03;;
5349;SDS011;2697;42.144;24.794;2023-11-25T14:37:01;5.80;;;3.53;;
5349;SDS011;2697;42.144;24.794;2023-11-25T14:39:27;9.97;;;4.50;;
5349;SDS011;2697;42.144;24.794;2023-11-25T14:42:06;11.70;;;6.40;;
5349;SDS011;2697;42.144;24.794;2023-11-25T14:44:33;5.80;;;3.40;;
5349;SDS011;2697;42.144;24.794;2023-11-25T14:46:59;4.93;;;2.97;;
5349;SDS011;2697;42.144;24.794;2023-11-25T14:49:25;2.10;;;1.90;;